createdAt,value
2022-10-02T00:00:42.933Z,53.67
2022-10-02T00:01:42.954Z,49.61
2022-10-02T00:02:42.900Z,49.97
2022-10-02T00:03:42.895Z,49.81
2022-10-02T00:04:42.916Z,49.79
2022-10-02T00:05:42.878Z,49.69
2022-10-02T00:06:42.898Z,47.25
2022-10-02T00:07:42.874Z,47.97
2022-10-02T00:08:42.878Z,44.91
2022-10-02T00:09:42.900Z,50.49
2022-10-02T00:10:42.910Z,50.25
2022-10-02T00:11:42.834Z,49.09
2022-10-02T00:12:42.840Z,48.50
2022-10-02T00:13:42.823Z,44.30
2022-10-02T00:14:42.827Z,45.87
2022-10-02T00:15:42.861Z,51.17
2022-10-02T00:16:42.897Z,48.43
2022-10-02T00:17:42.835Z,45.91
2022-10-02T00:18:42.784Z,48.17
2022-10-02T00:19:42.789Z,47.38
2022-10-02T00:20:42.774Z,52.43
2022-10-02T00:21:42.786Z,52.32
2022-10-02T00:22:42.866Z,57.26
2022-10-02T00:23:42.769Z,44.39
2022-10-02T00:24:42.751Z,43.98
2022-10-02T00:25:42.735Z,43.87
2022-10-02T00:26:42.817Z,43.82
2022-10-02T00:27:42.735Z,43.79
2022-10-02T00:28:42.719Z,43.77
2022-10-02T00:29:42.697Z,43.77
2022-10-02T00:30:42.694Z,44.02
2022-10-02T00:31:42.743Z,44.62
2022-10-02T00:32:42.703Z,51.63
2022-10-02T00:33:42.677Z,44.09
2022-10-02T00:34:42.678Z,47.87
2022-10-02T00:35:42.682Z,50.77
2022-10-02T00:36:42.659Z,44.77
2022-10-02T00:37:42.667Z,49.93
2022-10-02T00:38:42.643Z,44.13
2022-10-02T00:39:42.634Z,44.01
2022-10-02T00:40:42.624Z,43.69
2022-10-02T00:41:42.610Z,43.84
2022-10-02T00:42:42.642Z,44.78
2022-10-02T00:43:42.608Z,43.92
2022-10-02T00:44:42.619Z,43.74
2022-10-02T00:45:42.650Z,44.47
2022-10-02T00:46:42.580Z,57.31
2022-10-02T00:47:42.589Z,48.48
2022-10-02T00:48:42.588Z,45.66
2022-10-02T00:49:42.595Z,43.91
2022-10-02T00:50:42.583Z,50.50
2022-10-02T00:51:42.554Z,49.60
2022-10-02T00:52:42.544Z,44.20
2022-10-02T00:53:42.539Z,43.90
2022-10-02T00:54:42.544Z,43.76
2022-10-02T00:55:42.541Z,43.69
2022-10-02T00:56:42.565Z,43.60
2022-10-02T00:57:42.551Z,49.87
2022-10-02T00:58:42.498Z,44.62
2022-10-02T00:59:42.542Z,44.06
2022-10-02T01:00:42.543Z,50.06
2022-10-02T01:01:42.560Z,46.53
2022-10-02T01:02:42.465Z,50.61
2022-10-02T01:03:42.450Z,43.82
2022-10-02T01:04:42.484Z,44.23
2022-10-02T01:05:42.446Z,43.91
2022-10-02T01:06:42.427Z,44.67
2022-10-02T01:07:42.420Z,48.55
2022-10-02T01:08:42.416Z,43.87
2022-10-02T01:09:42.406Z,43.89
2022-10-02T01:10:42.427Z,44.16
2022-10-02T01:11:42.398Z,53.23
2022-10-02T01:12:42.392Z,47.30
2022-10-02T01:13:42.406Z,44.40
2022-10-02T01:14:42.375Z,53.93
2022-10-02T01:15:42.381Z,50.66
2022-10-02T01:16:42.403Z,50.33
2022-10-02T01:17:42.446Z,44.20
2022-10-02T01:18:42.329Z,44.15
2022-10-02T01:19:42.320Z,44.22
2022-10-02T01:20:42.326Z,44.41
2022-10-02T01:21:42.339Z,50.03
2022-10-02T01:22:42.295Z,51.99
2022-10-02T01:23:42.291Z,44.77
2022-10-02T01:24:42.323Z,44.07
2022-10-02T01:25:42.273Z,44.12
2022-10-02T01:26:42.295Z,44.33
2022-10-02T01:27:42.265Z,45.77
2022-10-02T01:28:42.285Z,58.44
2022-10-02T01:29:42.272Z,44.22
2022-10-02T01:30:42.274Z,46.15
2022-10-02T01:31:42.265Z,48.77
2022-10-02T01:32:42.266Z,47.36
2022-10-02T01:33:42.228Z,45.91
2022-10-02T01:34:42.205Z,44.92
2022-10-02T01:35:42.271Z,44.64
2022-10-02T01:36:42.207Z,50.19
2022-10-02T01:37:42.217Z,48.42
2022-10-02T01:38:42.207Z,43.88
2022-10-02T01:39:42.197Z,43.80
2022-10-02T01:40:42.152Z,44.05
2022-10-02T01:41:42.166Z,49.57
2022-10-02T01:42:42.177Z,47.09
2022-10-02T01:43:42.169Z,46.44
2022-10-02T01:44:42.149Z,45.54
2022-10-02T02:03:36.719Z,51.50
2022-10-02T02:04:36.738Z,46.27
2022-10-02T02:05:37.826Z,46.02
2022-10-02T02:06:38.225Z,44.54
2022-10-02T02:07:37.828Z,51.46
2022-10-02T02:08:37.801Z,48.48
2022-10-02T02:09:37.834Z,53.04
2022-10-02T02:10:37.823Z,44.44
2022-10-02T02:11:37.794Z,44.56
2022-10-02T02:12:37.800Z,46.56
2022-10-02T02:13:37.781Z,44.67
2022-10-02T02:14:37.790Z,44.87
2022-10-02T02:15:37.894Z,51.08
2022-10-02T02:16:38.108Z,51.52
2022-10-02T02:17:37.779Z,44.21
2022-10-02T02:18:37.755Z,44.42
2022-10-02T02:19:37.755Z,44.25
2022-10-02T02:20:37.821Z,44.18
2022-10-02T02:21:37.743Z,46.10
2022-10-02T02:22:37.695Z,47.72
2022-10-02T02:23:37.707Z,47.10
2022-10-02T02:24:37.682Z,50.70
2022-10-02T02:25:37.709Z,44.32
2022-10-02T02:26:37.966Z,44.51
2022-10-02T02:27:37.689Z,46.18
2022-10-02T02:28:37.697Z,44.63
2022-10-02T02:29:37.659Z,45.44
2022-10-02T02:30:38.669Z,47.16
2022-10-02T02:31:37.713Z,48.84
2022-10-02T02:32:37.636Z,45.76
2022-10-02T02:33:37.660Z,47.67
2022-10-02T02:34:37.631Z,44.65
2022-10-02T02:35:37.732Z,49.49
2022-10-02T02:36:37.950Z,44.28
2022-10-02T02:37:37.657Z,44.56
2022-10-02T02:38:37.648Z,50.42
2022-10-02T02:39:37.616Z,59.86
2022-10-02T02:40:37.785Z,52.43
2022-10-02T02:41:37.614Z,47.49
2022-10-02T02:42:37.614Z,44.29
2022-10-02T02:43:37.585Z,44.30
2022-10-02T02:44:37.621Z,50.81
2022-10-02T02:45:37.671Z,47.81
2022-10-02T02:46:37.788Z,46.36
2022-10-02T02:47:37.542Z,44.28
2022-10-02T02:48:37.554Z,44.30
2022-10-02T02:49:37.558Z,44.26
2022-10-02T02:50:37.636Z,44.26
2022-10-02T02:51:37.536Z,44.29
2022-10-02T02:52:37.533Z,44.26
2022-10-02T02:53:37.514Z,44.69
2022-10-02T02:54:37.542Z,51.56
2022-10-02T02:55:41.463Z,46.49
2022-10-02T02:56:39.519Z,44.22
2022-10-02T02:57:37.504Z,44.33
2022-10-02T02:58:37.482Z,55.29
2022-10-02T02:59:37.508Z,49.61
2022-10-02T03:00:37.534Z,49.46
2022-10-02T03:01:37.434Z,46.97
2022-10-02T03:02:37.442Z,45.00
2022-10-02T03:03:37.451Z,45.08
2022-10-02T03:04:37.424Z,48.83
2022-10-02T03:05:37.446Z,44.58
2022-10-02T03:06:37.753Z,46.42
2022-10-02T03:07:37.408Z,47.32
2022-10-02T03:08:37.393Z,44.28
2022-10-02T03:09:37.404Z,50.36
2022-10-02T03:10:37.407Z,44.32
2022-10-02T03:11:37.379Z,44.26
2022-10-02T03:12:38.010Z,50.65
2022-10-02T03:13:37.350Z,44.42
2022-10-02T03:14:37.366Z,44.39
2022-10-02T03:15:37.392Z,56.58
2022-10-02T03:16:37.632Z,45.47
2022-10-02T03:17:37.384Z,44.72
2022-10-02T03:18:37.317Z,44.32
2022-10-02T03:19:37.317Z,44.31
2022-10-02T03:20:37.383Z,44.95
2022-10-02T03:21:37.284Z,54.01
2022-10-02T03:22:37.287Z,50.60
2022-10-02T03:23:37.360Z,55.96
2022-10-02T03:24:37.293Z,44.38
2022-10-02T03:25:37.338Z,44.51
2022-10-02T03:26:37.466Z,50.18
2022-10-02T03:27:37.258Z,46.44
2022-10-02T03:28:55.136Z,48.45
2022-10-02T03:29:39.254Z,47.72
2022-10-02T03:30:37.245Z,50.23
2022-10-02T03:31:37.243Z,44.47
2022-10-02T03:32:37.229Z,44.26
2022-10-02T03:33:37.193Z,47.91
2022-10-02T03:34:37.215Z,44.60
2022-10-02T03:35:37.177Z,47.75
2022-10-02T03:36:37.468Z,63.05
2022-10-02T03:37:37.180Z,57.09
2022-10-02T03:38:37.182Z,44.94
2022-10-02T03:39:37.165Z,50.61
2022-10-02T03:40:37.171Z,44.72
2022-10-02T03:41:37.156Z,49.77
2022-10-02T03:42:37.123Z,49.80
2022-10-02T03:43:37.167Z,44.76
2022-10-02T03:44:37.164Z,50.48
2022-10-02T03:45:50.910Z,47.61
2022-10-02T03:46:39.654Z,46.79
2022-10-02T04:03:47.584Z,49.23
2022-10-02T04:04:47.532Z,50.43
2022-10-02T04:05:48.654Z,44.25
2022-10-02T04:06:48.659Z,45.32
2022-10-02T04:07:52.574Z,54.16
2022-10-02T04:08:49.624Z,44.62
2022-10-02T04:09:48.637Z,44.74
2022-10-02T04:10:48.611Z,51.12
2022-10-02T04:11:48.614Z,52.20
2022-10-02T04:12:48.604Z,46.07
2022-10-02T04:13:48.622Z,52.56
2022-10-02T04:14:48.608Z,57.10
2022-10-02T04:15:48.721Z,50.71
2022-10-02T04:16:48.657Z,54.43
2022-10-02T04:17:48.649Z,56.14
2022-10-02T04:18:48.583Z,55.37
2022-10-02T04:19:48.586Z,64.89
2022-10-02T04:20:48.606Z,63.57
2022-10-02T04:21:48.591Z,57.74
2022-10-02T04:22:48.603Z,62.31
2022-10-02T04:23:48.562Z,66.09
2022-10-02T04:24:48.552Z,57.36
2022-10-02T04:25:48.550Z,56.43
2022-10-02T04:26:48.549Z,54.04
2022-10-02T04:27:48.576Z,51.65
2022-10-02T04:28:48.613Z,54.57
2022-10-02T04:29:48.535Z,52.77
2022-10-02T04:30:48.483Z,52.04
2022-10-02T04:31:48.592Z,56.07
2022-10-02T04:32:48.494Z,52.54
2022-10-02T04:33:48.486Z,53.74
2022-10-02T04:34:48.453Z,45.84
2022-10-02T04:35:48.463Z,54.18
2022-10-02T04:36:48.475Z,49.60
2022-10-02T04:37:48.434Z,51.82
2022-10-02T04:38:48.462Z,51.37
2022-10-02T04:39:48.431Z,49.82
2022-10-02T04:40:48.396Z,54.15
2022-10-02T04:41:48.436Z,49.86
2022-10-02T04:42:48.425Z,45.79
2022-10-02T04:43:48.385Z,52.94
2022-10-02T04:44:48.370Z,62.89
2022-10-02T04:45:48.451Z,55.58
2022-10-02T04:46:48.411Z,45.70
2022-10-02T04:47:48.347Z,45.61
2022-10-02T04:48:48.345Z,54.82
2022-10-02T04:49:49.390Z,45.31
2022-10-02T04:50:48.335Z,54.04
2022-10-02T04:51:48.370Z,46.17
2022-10-02T04:52:48.319Z,51.02
2022-10-02T04:53:48.280Z,52.00
2022-10-02T04:54:49.286Z,45.28
2022-10-02T04:55:48.290Z,45.16
2022-10-02T04:56:48.286Z,45.18
2022-10-02T04:57:48.265Z,45.02
2022-10-02T04:58:48.265Z,53.05
2022-10-02T04:59:48.289Z,45.32
2022-10-02T05:00:48.308Z,60.08
2022-10-02T05:01:48.339Z,51.25
2022-10-02T05:02:48.265Z,48.80
2022-10-02T05:03:48.220Z,58.45
2022-10-02T05:04:48.216Z,53.06
2022-10-02T05:05:48.250Z,51.52
2022-10-02T05:06:48.202Z,46.34
2022-10-02T05:07:48.253Z,56.15
2022-10-02T05:08:48.191Z,52.28
2022-10-02T05:09:48.208Z,54.88
2022-10-02T05:10:48.196Z,45.95
2022-10-02T05:11:48.186Z,52.28
2022-10-02T05:12:48.186Z,55.65
2022-10-02T05:13:48.161Z,45.60
2022-10-02T05:14:48.151Z,48.61
2022-10-02T05:15:48.192Z,47.04
2022-10-02T05:16:48.162Z,50.58
2022-10-02T05:17:48.147Z,50.03
2022-10-02T05:18:48.186Z,55.24
2022-10-02T05:19:48.160Z,46.67
2022-10-02T05:20:48.109Z,50.16
2022-10-02T05:21:48.099Z,55.54
2022-10-02T05:22:48.099Z,54.43
2022-10-02T05:23:48.129Z,59.40
2022-10-02T05:24:48.087Z,63.22
2022-10-02T05:25:48.092Z,47.43
2022-10-02T05:26:48.081Z,53.54
2022-10-02T05:27:48.108Z,50.84
2022-10-02T05:28:48.060Z,45.96
2022-10-02T05:29:48.087Z,51.90
2022-10-02T05:30:48.022Z,61.27
2022-10-02T05:31:48.089Z,52.53
2022-10-02T05:32:48.027Z,57.74
2022-10-02T05:33:48.570Z,46.86
2022-10-02T05:34:49.007Z,45.99
2022-10-02T05:35:47.992Z,52.45
2022-10-02T05:36:47.984Z,54.75
2022-10-02T05:37:48.050Z,61.51
2022-10-02T05:38:47.988Z,56.05
2022-10-02T05:39:47.979Z,57.40
2022-10-02T05:40:47.948Z,46.09
2022-10-02T05:41:47.992Z,46.07
2022-10-02T05:42:47.989Z,46.80
2022-10-02T05:43:47.974Z,53.35
2022-10-02T05:44:47.941Z,59.40
2022-10-02T05:45:47.930Z,47.19
2022-10-02T05:46:47.961Z,60.93
2022-10-02T05:47:47.963Z,55.22
2022-10-02T05:48:47.870Z,52.74
2022-10-02T05:49:47.892Z,51.58
2022-10-02T05:50:47.903Z,52.38
2022-10-02T05:51:47.891Z,56.69
2022-10-02T05:52:47.855Z,47.60
2022-10-02T05:53:47.877Z,58.94
2022-10-02T05:54:47.839Z,50.80
2022-10-02T05:55:47.874Z,58.82
2022-10-02T05:56:47.886Z,52.22
2022-10-02T05:57:47.883Z,57.87
2022-10-02T05:58:47.830Z,57.38
2022-10-02T05:59:47.877Z,55.97
2022-10-02T06:00:47.872Z,55.20
2022-10-02T06:01:47.808Z,58.29
2022-10-02T06:02:47.810Z,51.40
2022-10-02T06:03:47.829Z,63.46
2022-10-02T06:04:47.779Z,60.27
2022-10-02T06:05:47.787Z,60.78
2022-10-02T06:06:47.784Z,54.99
2022-10-02T06:07:47.737Z,54.59
2022-10-02T06:08:47.796Z,55.95
2022-10-02T06:09:47.740Z,62.88
2022-10-02T06:10:47.745Z,50.58
2022-10-02T06:11:47.702Z,48.25
2022-10-02T06:12:47.713Z,53.61
2022-10-02T06:13:47.728Z,59.37
2022-10-02T06:14:50.663Z,53.32
2022-10-02T06:15:48.680Z,48.75
2022-10-02T06:16:47.741Z,45.86
2022-10-02T06:17:47.713Z,45.61
2022-10-02T06:18:47.740Z,46.30
2022-10-02T06:19:47.663Z,51.46
2022-10-02T06:20:47.659Z,57.26
2022-10-02T06:21:47.622Z,46.27
2022-10-02T06:22:48.229Z,55.06
2022-10-02T06:23:47.639Z,61.78
2022-10-02T06:24:47.675Z,56.02
2022-10-02T06:25:47.667Z,48.79
2022-10-02T06:26:47.619Z,62.07
2022-10-02T06:27:47.676Z,57.23
2022-10-02T06:28:47.581Z,54.64
2022-10-02T06:29:47.562Z,51.71
2022-10-02T06:30:47.600Z,55.64
2022-10-02T06:31:47.623Z,57.16
2022-10-02T06:32:47.573Z,47.65
2022-10-02T06:33:47.540Z,56.92
2022-10-02T06:34:48.590Z,54.83
2022-10-02T06:35:47.549Z,55.33
2022-10-02T06:36:47.579Z,52.07
2022-10-02T06:37:47.526Z,63.37
2022-10-02T06:38:47.539Z,51.10
2022-10-02T06:39:47.507Z,46.68
2022-10-02T06:40:47.518Z,51.84
2022-10-02T06:41:47.516Z,54.32
2022-10-02T06:42:47.488Z,58.78
2022-10-02T06:43:47.474Z,56.24
2022-10-02T06:44:47.478Z,52.91
2022-10-02T06:45:47.529Z,55.45
2022-10-02T06:46:51.280Z,56.28
2022-10-02T06:47:48.443Z,51.76
2022-10-02T06:48:47.435Z,51.53
2022-10-02T06:49:47.435Z,56.60
2022-10-02T06:50:47.393Z,50.86
2022-10-02T06:51:47.397Z,59.42
2022-10-02T06:52:47.439Z,56.05
2022-10-02T06:53:47.379Z,52.28
2022-10-02T06:54:47.440Z,59.45
2022-10-02T06:55:47.350Z,63.60
2022-10-02T06:56:47.382Z,55.73
2022-10-02T06:57:47.434Z,62.69
2022-10-02T06:58:47.381Z,63.34
2022-10-02T06:59:47.371Z,54.45
2022-10-02T07:00:47.391Z,57.24
2022-10-02T07:01:47.424Z,62.11
2022-10-02T07:02:47.398Z,60.19
2022-10-02T07:03:47.308Z,58.79
2022-10-02T07:04:47.339Z,63.06
2022-10-02T07:05:47.383Z,67.11
2022-10-02T07:06:47.340Z,60.08
2022-10-02T07:07:47.328Z,63.71
2022-10-02T07:08:47.292Z,66.74
2022-10-02T07:09:48.148Z,71.01
2022-10-02T07:10:47.941Z,63.23
2022-10-02T07:11:47.283Z,63.32
2022-10-02T07:12:47.227Z,66.80
2022-10-02T07:13:47.264Z,66.13
2022-10-02T07:14:47.224Z,63.24
2022-10-02T07:15:47.254Z,61.19
2022-10-02T07:16:47.259Z,64.36
2022-10-02T07:17:47.189Z,58.51
2022-10-02T07:18:47.178Z,63.84
2022-10-02T07:19:48.924Z,58.44
2022-10-02T07:20:47.207Z,64.96
2022-10-02T07:21:47.223Z,65.14
2022-10-02T07:22:47.220Z,63.65
2022-10-02T07:23:47.223Z,64.46
2022-10-02T07:24:47.171Z,60.52
2022-10-02T07:25:47.127Z,65.35
2022-10-02T07:26:47.178Z,68.90
2022-10-02T07:27:47.156Z,60.52
2022-10-02T07:28:47.139Z,62.02
2022-10-02T07:29:47.149Z,62.17
2022-10-02T07:30:47.155Z,69.82
2022-10-02T07:31:47.165Z,59.91
2022-10-02T07:32:47.099Z,59.93
2022-10-02T07:33:47.084Z,58.85
2022-10-02T07:34:47.093Z,66.47
2022-10-02T07:35:47.122Z,62.03
2022-10-02T07:36:47.101Z,63.01
2022-10-02T07:37:47.143Z,68.31
2022-10-02T07:38:47.074Z,57.11
2022-10-02T07:39:47.101Z,60.43
2022-10-02T07:40:47.118Z,63.59
2022-10-02T07:41:47.079Z,66.85
2022-10-02T07:42:47.056Z,60.19
2022-10-02T07:43:47.126Z,67.88
2022-10-02T07:44:46.958Z,63.92
2022-10-02T07:45:47.016Z,66.23
2022-10-02T07:46:46.979Z,64.92
2022-10-02T07:47:46.976Z,61.94
2022-10-02T07:48:46.938Z,58.71
2022-10-02T07:49:46.944Z,59.70
2022-10-02T07:50:46.941Z,65.02
2022-10-02T07:51:46.949Z,68.98
2022-10-02T07:52:46.948Z,61.37
2022-10-02T07:53:46.968Z,63.32
2022-10-02T07:54:46.899Z,59.28
2022-10-02T07:55:46.900Z,58.23
2022-10-02T07:56:46.872Z,57.05
2022-10-02T07:57:46.930Z,64.39
2022-10-02T07:58:46.874Z,63.40
2022-10-02T07:59:47.011Z,68.39
2022-10-02T08:00:46.876Z,69.18
2022-10-02T08:01:48.923Z,65.82
2022-10-02T08:02:46.887Z,52.05
2022-10-02T08:03:46.832Z,66.19
2022-10-02T08:04:46.852Z,61.12
2022-10-02T08:05:46.850Z,57.21
2022-10-02T08:06:46.808Z,58.17
2022-10-02T08:07:46.823Z,63.13
2022-10-02T08:08:46.771Z,69.82
2022-10-02T08:09:48.319Z,60.67
2022-10-02T08:10:47.799Z,61.07
2022-10-02T08:11:49.475Z,65.61
2022-10-02T08:12:47.744Z,65.84
2022-10-02T08:13:46.715Z,62.56
2022-10-02T08:14:46.904Z,56.90
2022-10-02T08:15:46.729Z,62.85
2022-10-02T08:16:46.778Z,60.83
2022-10-02T08:17:46.743Z,56.88
2022-10-02T08:18:46.729Z,63.54
2022-10-02T08:19:46.714Z,59.75
2022-10-02T08:20:46.673Z,59.82
2022-10-02T08:21:46.710Z,58.34
2022-10-02T08:22:46.704Z,56.91
2022-10-02T08:23:46.654Z,63.84
2022-10-02T08:24:46.682Z,63.44
2022-10-02T08:25:46.690Z,57.25
2022-10-02T08:26:46.646Z,64.59
2022-10-02T08:27:46.731Z,54.41
2022-10-02T08:28:46.679Z,61.61
2022-10-02T08:29:46.677Z,68.42
2022-10-02T08:30:46.622Z,64.95
2022-10-02T08:31:46.666Z,56.72
2022-10-02T08:32:47.359Z,63.72
2022-10-02T08:33:46.633Z,63.70
2022-10-02T08:34:46.619Z,56.00
2022-10-02T08:35:46.598Z,65.64
2022-10-02T08:43:56.354Z,57.42
2022-10-02T08:44:55.807Z,60.89
2022-10-02T08:45:56.938Z,61.13
2022-10-02T08:46:58.315Z,65.69
2022-10-02T08:47:57.079Z,66.38
2022-10-02T08:48:58.316Z,66.59
2022-10-02T08:49:57.878Z,67.40
2022-10-02T08:50:57.904Z,51.10
2022-10-02T08:51:57.709Z,49.61
2022-10-02T08:52:57.048Z,64.33
2022-10-02T08:53:58.818Z,67.50
2022-10-02T08:54:56.942Z,61.98
2022-10-02T08:55:57.163Z,60.13
2022-10-02T08:56:57.455Z,63.05
2022-10-02T09:00:01.272Z,58.97
2022-10-02T09:00:52.022Z,0.00
2022-10-02T09:01:10.641Z,55.27
2022-10-02T09:02:09.919Z,54.74
2022-10-02T09:03:10.387Z,68.80
2022-10-02T09:04:09.974Z,59.72
2022-10-02T09:05:09.484Z,65.02
2022-10-02T09:06:12.027Z,61.79
2022-10-02T09:07:12.729Z,64.43
2022-10-02T09:08:10.820Z,63.82
2022-10-02T09:09:13.919Z,68.96
2022-10-02T09:10:16.069Z,66.47
2022-10-02T09:11:09.990Z,61.35
2022-10-02T09:12:10.818Z,64.30
2022-10-02T09:13:10.598Z,58.81
2022-10-02T09:14:14.394Z,57.13
2022-10-02T09:15:10.776Z,67.16
2022-10-02T09:16:10.848Z,57.15
2022-10-02T09:17:14.908Z,64.40
2022-10-02T09:18:13.061Z,67.27
2022-10-02T09:19:09.327Z,59.00
2022-10-02T09:20:07.531Z,66.91
2022-10-02T09:21:11.450Z,65.59
2022-10-02T09:22:08.440Z,66.62
2022-10-02T09:23:07.438Z,64.57
2022-10-02T09:24:07.491Z,64.08
2022-10-02T09:25:07.494Z,63.19
2022-10-02T09:26:07.432Z,60.97
2022-10-02T09:27:08.133Z,64.48
2022-10-02T09:28:07.460Z,66.32
2022-10-02T09:29:41.679Z,69.55
2022-10-02T09:30:08.903Z,57.06
2022-10-02T09:31:42.268Z,66.42
2022-10-02T09:32:39.784Z,66.57
2022-10-02T09:33:07.350Z,59.10
2022-10-02T09:37:16.382Z,62.92
2022-10-02T09:38:17.178Z,59.91
2022-10-02T09:39:17.287Z,65.32
2022-10-02T09:43:58.765Z,64.96
2022-10-02T09:45:01.393Z,62.87
2022-10-02T09:45:59.958Z,58.29
2022-10-02T09:46:59.659Z,67.42
2022-10-02T09:47:58.880Z,60.38
2022-10-02T09:48:59.671Z,57.44
2022-10-02T09:49:59.654Z,62.65
2022-10-02T09:50:58.751Z,64.39
2022-10-02T09:51:59.150Z,63.74
2022-10-02T09:52:58.668Z,60.52
2022-10-02T09:53:59.650Z,64.09
2022-10-02T09:54:58.608Z,63.31
2022-10-02T09:55:58.619Z,65.56
2022-10-02T09:56:58.686Z,63.41
2022-10-02T09:57:58.676Z,60.10
2022-10-02T09:58:59.151Z,56.76
2022-10-02T09:59:58.782Z,64.63
2022-10-02T10:00:58.799Z,61.27
2022-10-02T10:01:59.572Z,62.26
2022-10-02T10:02:59.491Z,64.75
2022-10-02T10:03:58.675Z,68.74
2022-10-02T10:05:06.210Z,55.91
2022-10-02T10:06:01.310Z,69.89
2022-10-02T10:06:58.565Z,59.85
2022-10-02T10:08:00.426Z,59.57
2022-10-02T10:08:58.579Z,57.36
2022-10-02T10:09:58.558Z,67.84
2022-10-02T10:10:59.155Z,65.34
2022-10-02T10:11:59.502Z,63.30
2022-10-02T10:12:58.466Z,57.79
2022-10-02T10:13:59.945Z,53.46
2022-10-02T10:14:58.491Z,68.55
2022-10-02T10:16:00.231Z,65.49
2022-10-02T10:16:59.155Z,64.94
2022-10-02T10:17:59.182Z,59.00
2022-10-02T10:19:01.706Z,65.62
2022-10-02T10:19:59.417Z,60.40
2022-10-02T10:20:58.628Z,67.73
2022-10-02T10:21:59.658Z,65.32
2022-10-02T10:22:59.502Z,63.32
2022-10-02T10:23:58.999Z,56.84
2022-10-02T10:24:58.338Z,64.41
2022-10-02T10:25:58.414Z,63.68
2022-10-02T10:26:58.445Z,63.76
2022-10-02T10:27:58.511Z,62.34
2022-10-02T10:28:58.471Z,65.47
2022-10-02T10:29:58.424Z,67.77
2022-10-02T10:30:58.567Z,58.00
2022-10-02T10:31:58.319Z,52.45
2022-10-02T10:32:58.323Z,59.06
2022-10-02T10:33:58.297Z,62.31
2022-10-02T10:34:58.371Z,62.12
2022-10-02T10:35:58.565Z,65.14
2022-10-02T10:36:59.052Z,64.29
2022-10-02T10:37:58.514Z,63.66
2022-10-02T10:38:58.310Z,61.61
2022-10-02T10:39:58.333Z,57.31
2022-10-02T10:41:00.161Z,59.81
2022-10-02T10:41:58.441Z,64.07
2022-10-02T10:43:08.846Z,64.59
2022-10-02T10:44:00.286Z,63.07
2022-10-02T10:44:58.388Z,62.50
2022-10-02T10:45:58.354Z,62.32
2022-10-02T10:46:58.315Z,56.03
2022-10-02T10:47:59.508Z,64.76
2022-10-02T10:48:59.055Z,63.38
2022-10-02T10:49:58.491Z,58.67
2022-10-02T10:50:58.483Z,65.54
2022-10-02T10:51:58.455Z,61.67
2022-10-02T10:52:58.504Z,63.10
2022-10-02T10:54:01.897Z,63.45
2022-10-02T10:54:59.260Z,61.33
2022-10-02T10:55:58.325Z,53.94
2022-10-02T10:56:58.173Z,65.93
2022-10-02T10:57:58.159Z,67.18
2022-10-02T10:58:58.253Z,63.53
2022-10-02T10:59:58.668Z,61.76
2022-10-02T11:00:58.596Z,63.29
2022-10-02T11:01:58.281Z,66.55
2022-10-02T11:02:58.308Z,63.81
2022-10-02T11:03:58.168Z,64.08
2022-10-02T11:04:58.396Z,63.81
2022-10-02T11:05:58.113Z,61.59
2022-10-02T11:06:59.113Z,53.40
2022-10-02T11:07:58.457Z,56.64
2022-10-02T11:08:58.681Z,55.45
2022-10-02T11:09:58.124Z,61.57
2022-10-02T11:10:58.169Z,61.14
2022-10-02T11:11:58.044Z,65.72
2022-10-02T11:12:58.146Z,54.85
2022-10-02T11:13:58.094Z,61.62
2022-10-02T11:14:58.098Z,53.50
2022-10-02T11:15:58.116Z,63.68
2022-10-02T11:20:12.740Z,70.20
2022-10-02T11:21:12.753Z,65.03
2022-10-02T11:22:15.138Z,63.30
2022-10-02T11:23:14.038Z,67.18
2022-10-02T11:24:13.879Z,59.45
2022-10-02T11:25:13.929Z,65.90
2022-10-02T11:26:20.651Z,66.34
2022-10-02T11:27:36.636Z,64.97
2022-10-02T11:29:01.626Z,66.66
2022-10-02T11:29:14.074Z,71.25
2022-10-02T11:30:41.733Z,65.74
2022-10-02T11:31:16.381Z,58.75
2022-10-02T11:32:31.886Z,70.39
2022-10-02T11:37:46.439Z,69.09
2022-10-02T11:43:19.776Z,67.39
2022-10-02T11:44:18.062Z,62.73
2022-10-02T11:46:24.895Z,60.75
2022-10-02T11:46:40.656Z,0.00
2022-10-02T11:47:35.385Z,66.82
2022-10-02T11:48:44.012Z,64.71
2022-10-02T11:49:37.943Z,66.17
2022-10-02T11:50:57.012Z,68.60
2022-10-02T11:51:46.484Z,66.78
2022-10-02T11:52:35.902Z,70.73
2022-10-02T11:53:28.888Z,60.00
2022-10-02T11:54:27.663Z,65.04
2022-10-02T11:55:28.871Z,58.82
2022-10-02T11:56:27.310Z,66.87
2022-10-02T11:57:32.743Z,70.02
2022-10-02T11:58:28.378Z,63.00
2022-10-02T11:59:28.109Z,64.85
2022-10-02T12:00:27.877Z,63.88
2022-10-02T12:01:26.422Z,69.58
2022-10-02T12:02:27.423Z,66.75
2022-10-02T12:03:27.226Z,66.29
2022-10-02T12:04:27.233Z,68.34
2022-10-02T12:05:27.872Z,71.14
2022-10-02T12:06:27.879Z,67.33
2022-10-02T12:07:28.375Z,63.14
2022-10-02T12:08:27.255Z,69.12
2022-10-02T12:09:27.657Z,66.66
2022-10-02T12:10:27.873Z,65.79
2022-10-02T12:11:26.877Z,68.12
2022-10-02T12:12:27.982Z,69.52
2022-10-02T12:13:27.370Z,69.18
2022-10-02T12:14:26.351Z,62.23
2022-10-02T12:15:26.428Z,68.18
2022-10-02T12:16:26.954Z,65.16
2022-10-02T12:17:27.192Z,60.30
2022-10-02T12:18:26.328Z,64.29
2022-10-02T12:19:27.386Z,65.37
2022-10-02T12:20:26.405Z,60.15
2022-10-02T12:21:26.368Z,65.66
2022-10-02T12:22:26.883Z,69.82
2022-10-02T12:23:26.457Z,65.06
2022-10-02T12:24:26.412Z,69.32
2022-10-02T12:25:26.879Z,67.81
2022-10-02T12:26:27.253Z,68.02
2022-10-02T12:27:26.897Z,65.53
2022-10-02T12:28:26.323Z,64.83
2022-10-02T12:29:27.443Z,65.03
2022-10-02T12:30:27.404Z,67.18
2022-10-02T12:31:26.293Z,59.43
2022-10-02T12:32:26.884Z,68.22
2022-10-02T12:33:27.100Z,69.89
2022-10-02T12:34:27.107Z,63.68
2022-10-02T12:35:27.167Z,67.59
2022-10-02T12:36:27.115Z,62.39
2022-10-02T12:37:26.090Z,64.91
2022-10-02T12:38:26.147Z,65.08
2022-10-02T12:39:26.202Z,64.21
2022-10-02T12:40:26.174Z,67.22
2022-10-02T12:41:26.896Z,64.69
2022-10-02T12:42:26.221Z,66.61
2022-10-02T12:43:26.891Z,63.47
2022-10-02T12:44:26.194Z,60.37
2022-10-02T12:45:26.336Z,67.04
2022-10-02T12:46:26.076Z,61.88
2022-10-02T12:47:26.221Z,64.56
2022-10-02T12:48:26.884Z,67.62
2022-10-02T12:49:26.884Z,62.73
2022-10-02T12:50:27.904Z,63.66
2022-10-02T12:51:26.135Z,60.58
2022-10-02T12:52:26.033Z,60.83
2022-10-02T12:53:26.913Z,62.43
2022-10-02T12:54:26.737Z,64.73
2022-10-02T12:55:27.043Z,64.84
2022-10-02T12:56:27.403Z,61.28
2022-10-02T12:57:26.143Z,63.83
2022-10-02T12:58:26.706Z,64.02
2022-10-02T12:59:26.928Z,62.84
2022-10-02T13:00:26.111Z,65.21
2022-10-02T13:01:26.106Z,66.54
2022-10-02T13:02:42.934Z,58.93
2022-10-02T13:03:28.025Z,66.79
2022-10-02T13:04:27.005Z,62.03
2022-10-02T13:05:26.089Z,65.50
2022-10-02T13:06:26.082Z,66.32
2022-10-02T13:07:27.409Z,61.90
2022-10-02T13:08:26.792Z,63.96
2022-10-02T13:09:29.826Z,67.54
2022-10-02T13:10:27.666Z,64.77
2022-10-02T13:11:26.892Z,67.43
2022-10-02T13:12:25.943Z,61.21
2022-10-02T13:13:26.397Z,68.59
2022-10-02T13:14:25.826Z,62.92
2022-10-02T13:15:26.894Z,62.28
2022-10-02T13:16:25.885Z,63.01
2022-10-02T13:17:27.755Z,63.45
2022-10-02T13:18:25.788Z,62.53
2022-10-02T13:19:25.957Z,64.41
2022-10-02T13:20:28.420Z,62.40
2022-10-02T13:21:25.895Z,57.79
2022-10-02T13:22:25.950Z,59.23
2022-10-02T13:23:25.912Z,65.09
2022-10-02T13:24:26.400Z,64.70
2022-10-02T13:25:27.898Z,66.69
2022-10-02T13:26:26.410Z,66.99
2022-10-02T13:27:30.681Z,62.63
2022-10-02T13:28:28.476Z,64.40
2022-10-02T13:29:25.708Z,67.67
2022-10-02T13:30:27.410Z,63.70
2022-10-02T13:31:25.829Z,58.63
2022-10-02T13:32:25.840Z,63.79
2022-10-02T13:33:27.397Z,60.20
2022-10-02T13:34:26.709Z,65.43
2022-10-02T13:35:25.702Z,58.45
2022-10-02T13:36:33.583Z,61.69
2022-10-02T13:37:27.402Z,61.04
2022-10-02T13:38:26.638Z,61.77
2022-10-02T13:39:25.633Z,58.16
2022-10-02T13:40:25.931Z,63.33
2022-10-02T13:41:25.614Z,58.83
2022-10-02T13:42:25.654Z,58.16
2022-10-02T13:43:26.905Z,62.14
2022-10-02T13:44:26.409Z,63.02
2022-10-02T13:45:27.944Z,62.96
2022-10-02T13:46:26.180Z,62.16
2022-10-02T13:47:25.558Z,63.97
2022-10-02T13:48:25.633Z,62.91
2022-10-02T13:49:27.044Z,60.54
2022-10-02T13:50:25.946Z,61.43
2022-10-02T13:51:26.554Z,66.23
2022-10-02T13:52:25.523Z,60.78
2022-10-02T13:53:27.079Z,64.08
2022-10-02T13:54:25.829Z,65.52